Time;durP1;ratioP1;P1;durP2;ratioP2;P2;SDS_P1;SDS_P2;PMS_P1;PMS_P2;Temp;Humidity;BMP_temperature;BMP_pressure;BME280_temperature;BME280_humidity;BME280_pressure;Samples;Min_cycle;Max_cycle;Signal;HPM_P1;HPM_P2
2023/10/02 00:12:32;;;;;;;5.68;3.50;;;;;;;22.85;46.80;101150.72;41243634;28;20050;-83
2023/10/02 00:32:35;;;;;;;7.13;3.60;;;;;;;22.77;46.97;101123.22;41219587;28;20047;-85
2023/10/02 00:53:04;;;;;;;7.43;3.80;;;;;;;22.84;46.80;101132.38;41206931;28;20047;-84
2023/10/02 01:13:05;;;;;;;5.05;3.22;;;;;;;22.74;47.05;101124.28;41220693;28;20113;-85
2023/10/02 01:33:12;;;;;;;4.50;3.17;;;;;;;22.82;47.35;101143.03;41223040;28;20086;-87
2023/10/02 01:53:29;;;;;;;6.57;3.60;;;;;;;22.79;46.85;101150.31;41246304;28;20038;-88
2023/10/02 02:13:38;;;;;;;4.97;3.20;;;;;;;22.77;46.98;101149.59;41243430;28;20070;-84
2023/10/02 02:33:39;;;;;;;4.10;2.90;;;;;;;22.67;47.30;101149.44;41263811;28;20049;-85
2023/10/02 02:53:40;;;;;;;5.63;2.97;;;;;;;22.59;46.83;101149.13;41235590;28;20057;-85
2023/10/02 03:13:41;;;;;;;6.32;3.40;;;;;;;22.65;46.93;101175.91;41243639;28;20043;-83
2023/10/02 03:33:41;;;;;;;5.32;3.25;;;;;;;22.60;46.93;101178.03;41251005;28;20087;-85
2023/10/02 03:53:42;;;;;;;5.88;3.45;;;;;;;22.63;46.98;101195.47;41227668;28;20048;-84
2023/10/02 04:13:45;;;;;;;6.78;3.20;;;;;;;22.58;46.84;101168.56;41244807;28;20042;-84
2023/10/02 04:34:36;;;;;;;14.65;3.90;;;;;;;22.73;48.06;101191.22;41213056;28;20042;-79
2023/10/02 04:54:15;;;;;;;12.38;5.05;;;;;;;22.34;44.93;101219.44;41089658;28;20106;-85
2023/10/02 05:14:15;;;;;;;15.93;4.80;;;;;;;22.08;45.37;101227.31;41060699;28;20480;-83
2023/10/02 05:34:25;;;;;;;24.35;5.38;;;;;;;22.26;45.41;101272.72;41064793;28;20059;-78
2023/10/02 05:54:26;;;;;;;14.15;4.95;;;;;;;22.14;45.46;101266.50;41124272;28;20078;-85
2023/10/02 06:14:26;;;;;;;18.35;5.97;;;;;;;22.32;45.66;101309.22;41114460;28;20043;-83
2023/10/02 07:37:05;;;;;;;42.15;8.20;;;;;;;22.31;45.08;101318.09;41587711;28;20886;-76
2023/10/02 07:57:05;;;;;;;26.23;6.43;;;;;;;22.35;45.87;101329.28;41552529;28;20064;-72
2023/10/02 08:17:27;;;;;;;16.55;5.80;;;;;;;22.63;45.55;101348.56;41526659;28;20050;-72
2023/10/02 08:37:28;;;;;;;60.65;7.22;;;;;;;22.75;46.98;101334.50;41405417;28;20478;-76
2023/10/02 08:57:31;;;;;;;33.15;6.53;;;;;;;22.77;47.17;101329.97;41443771;28;20046;-79
2023/10/02 09:17:44;;;;;;;51.75;7.22;;;;;;;24.21;53.06;101321.50;41430071;28;20042;-67
2023/10/02 09:37:45;;;;;;;20.02;6.05;;;;;;;23.05;48.19;101308.72;41371025;28;20113;-70
2023/10/02 09:57:53;;;;;;;42.40;7.82;;;;;;;23.09;50.60;101276.69;41379069;28;20050;-82
2023/10/02 10:17:56;;;;;;;30.27;6.40;;;;;;;23.60;50.46;101288.91;41411557;28;20495;-74
2023/10/02 10:37:56;;;;;;;25.63;6.45;;;;;;;23.46;46.19;101274.06;41390804;28;20572;-72
2023/10/02 10:57:57;;;;;;;23.75;7.13;;;;;;;23.67;47.00;101228.50;41439445;28;20046;-76
2023/10/02 11:18:20;;;;;;;44.67;8.10;;;;;;;23.97;46.75;101235.09;41413699;28;20049;-78
2023/10/02 11:38:22;;;;;;;19.35;6.60;;;;;;;24.23;46.42;101195.19;41422372;28;20125;-78
2023/10/02 11:58:23;;;;;;;28.20;7.22;;;;;;;24.22;44.81;101149.38;41433215;28;20073;-80
2023/10/02 12:18:23;;;;;;;20.55;6.65;;;;;;;24.65;45.50;101182.19;41450378;28;20125;-77
2023/10/02 12:38:34;;;;;;;14.43;5.45;;;;;;;24.90;41.23;101162.56;41413494;28;20035;-76
2023/10/02 12:58:35;;;;;;;16.98;7.00;;;;;;;24.93;43.75;101146.38;41457665;28;20050;-76
2023/10/02 13:18:36;;;;;;;24.63;7.05;;;;;;;25.00;45.16;101122.91;41439386;28;20038;-74
2023/10/02 13:38:36;;;;;;;11.90;6.70;;;;;;;24.71;45.61;101073.16;41433772;28;20119;-83
2023/10/02 13:58:42;;;;;;;18.42;6.70;;;;;;;24.85;44.85;101053.50;41439633;28;20053;-81
2023/10/02 14:18:43;;;;;;;15.40;5.95;;;;;;;25.16;44.73;101081.84;41442383;28;20056;-76
2023/10/02 14:38:43;;;;;;;10.63;5.93;;;;;;;24.95;44.72;101069.47;41438243;28;20053;-75
2023/10/02 14:58:48;;;;;;;18.30;5.88;;;;;;;23.05;46.19;100989.94;41382935;28;20049;-79
2023/10/02 15:18:49;;;;;;;11.43;5.88;;;;;;;23.49;49.93;101022.72;41419636;28;20050;-77
2023/10/02 15:38:50;;;;;;;13.68;6.18;;;;;;;24.42;48.72;101051.66;41410342;28;20057;-74
2023/10/02 15:58:51;;;;;;;17.48;5.80;;;;;;;24.38;49.00;101056.34;41354392;28;20054;-74
2023/10/02 16:18:51;;;;;;;17.38;4.53;;;;;;;23.90;45.32;101046.03;41344320;28;20054;-76
2023/10/02 16:38:52;;;;;;;14.50;5.20;;;;;;;24.47;47.84;101086.53;41349719;28;20050;-76
2023/10/02 16:58:53;;;;;;;11.43;5.50;;;;;;;24.36;48.24;101079.47;41378413;28;20068;-80
2023/10/02 17:18:53;;;;;;;23.33;5.70;;;;;;;24.33;48.24;101094.75;41389497;28;20097;-71
2023/10/02 17:38:54;;;;;;;13.52;5.20;;;;;;;24.33;49.46;101100.03;41382051;28;20069;-74
2023/10/02 17:58:55;;;;;;;15.80;5.43;;;;;;;23.73;46.19;101103.75;41345315;28;20057;-76
2023/10/02 18:18:57;;;;;;;16.45;5.60;;;;;;;24.02;47.27;101083.94;41354432;28;20050;-73
2023/10/02 18:39:04;;;;;;;12.32;5.72;;;;;;;22.76;49.76;101122.34;41341240;28;20064;-75
2023/10/02 18:59:05;;;;;;;11.30;5.78;;;;;;;23.23;51.87;101103.13;41377309;28;20053;-71
2023/10/02 19:19:06;;;;;;;11.63;5.63;;;;;;;22.51;50.08;101134.69;41375209;28;20046;-73
2023/10/02 19:39:09;;;;;;;11.95;5.40;;;;;;;23.40;48.99;101146.78;41384342;28;20158;-73
2023/10/02 19:59:12;;;;;;;9.02;5.18;;;;;;;23.47;49.24;101127.75;41368870;28;20045;-74
2023/10/02 20:19:17;;;;;;;11.70;5.95;;;;;;;23.58;49.39;101141.94;41384786;28;20053;-74
2023/10/02 20:39:17;;;;;;;13.75;5.70;;;;;;;23.50;50.95;101142.50;41419983;28;20025;-74
2023/10/02 20:59:20;;;;;;;11.02;5.63;;;;;;;23.52;50.35;101126.53;41409903;28;21935;-74
2023/10/02 21:19:21;;;;;;;10.32;5.65;;;;;;;23.49;51.11;101154.88;41396304;28;20057;-74
2023/10/02 21:39:23;;;;;;;9.75;5.97;;;;;;;23.38;51.23;101131.06;41409517;28;20056;-71
2023/10/02 21:59:25;;;;;;;11.63;5.45;;;;;;;23.50;50.82;101147.81;41393104;28;20042;-75
2023/10/02 22:19:27;;;;;;;10.93;5.80;;;;;;;23.30;50.95;101121.06;41425892;28;20048;-76
2023/10/02 22:39:28;;;;;;;9.65;5.78;;;;;;;23.26;50.25;101109.03;41395874;28;20050;-74
2023/10/02 22:59:28;;;;;;;9.32;5.40;;;;;;;23.25;50.64;101120.56;41370944;28;20060;-73
2023/10/02 23:19:29;;;;;;;8.82;5.40;;;;;;;23.13;50.52;101111.72;41400123;28;20046;-74
2023/10/02 23:39:30;;;;;;;8.13;5.47;;;;;;;23.24;50.21;101126.81;41399144;28;20053;-74
2023/10/02 23:59:31;;;;;;;9.57;5.47;;;;;;;23.05;50.16;101092.13;41426149;28;21065;-76
